Station: Mackay  

  Atmospheric Gas Attenuation - ITU Rec 676-11   ----------------- dB/100km -----------------
Date Time Temp RH % AH g/m3 Dew Point Wind Direction Speed kph Gust kph Barometer mB Rainfall Since 9am 24GHz 47GHz 76GHz 122GHz 134GHz 241GHz
03/05 02:30 18.9 95 15.39 18.1 11 15 1015.6 0 33.8 36.1 66.1 174.5 186.3 646.0
03/05 02:20 18.8 95 15.3 18 13 15 1015.7 0 33.6 36.0 65.8 173.7 185.2 642.1
03/05 02:10 18.8 95 15.3 18 11 15 1015.7 0 33.6 36.0 65.8 173.7 185.2 642.1
03/05 02:00 18.8 94 15.14 17.8 13 19 1015.7 0 33.3 35.7 65.0 171.7 182.8 633.6
03/05 01:50 18.9 94 15.23 17.9 11 15 1015.8 0 33.5 35.8 65.3 172.6 183.9 637.6
03/05 01:40 18.9 94 15.23 17.9 13 15 1015.9 0 33.5 35.8 65.4 172.6 183.9 637.7
03/05 01:30 18.9 94 15.23 17.9 13 15 1015.8 0 33.5 35.8 65.3 172.6 183.9 637.6
03/05 01:20 18.8 94 15.14 17.8 11 13 1015.9 0 33.3 35.7 65.0 171.7 182.8 633.7
03/05 01:10 18.8 94 15.14 17.8 11 13 1016 0 33.3 35.7 65.0 171.7 182.8 633.8
03/05 01:00 19 93 15.15 17.8 11 15 1016 0 33.3 35.6 64.9 171.4 182.5 632.6
03/05 00:50 19 93 15.15 17.8 11 13 1016.2 0 33.3 35.6 64.9 171.4 182.5 632.7
03/05 00:40 19.1 93 15.24 17.9 11 13 1016.3 0 33.5 35.7 65.3 172.3 183.6 636.7
03/05 00:30 19.2 93 15.33 18 11 15 1016.5 0 33.7 35.9 65.6 173.2 184.8 640.7
03/05 00:20 19.3 92 15.26 18 11 13 1016.6 0 33.5 35.7 65.2 172.2 183.5 636.2
03/05 00:10 19.4 92 15.35 18.1 11 13 1016.8 0 33.7 35.8 65.5 173.1 184.6 640.2
03/05 00:00 19.5 92 15.44 18.2 11 15 1016.9 0 33.9 36.0 65.9 174.0 185.8 644.2
02/05 23:50 19.6 92 15.53 18.3 11 13 1016.8 0 34.0 36.1 66.2 174.8 186.9 648.1
02/05 23:40 19.6 92 15.53 18.3 11 13 1017 0 34.0 36.1 66.2 174.9 186.9 648.2
02/05 23:30 19.6 92 15.53 18.3 11 17 1016.9 0 34.0 36.1 66.2 174.9 186.9 648.1
02/05 23:20 19.6 93 15.7 18.4 11 13 1017 0 34.4 36.4 67.0 177.0 189.5 657.2
02/05 23:10 19.7 93 15.79 18.5 11 13 1017.1 0 34.6 36.6 67.3 177.9 190.6 661.2
02/05 23:00 19.8 93 15.88 18.6 11 15 1017 0 34.8 36.7 67.7 178.8 191.8 665.1
02/05 22:50 19.7 93 15.79 18.5 11 13 1017.1 0 34.6 36.6 67.3 177.9 190.6 661.2
02/05 22:40 19.6 92 15.53 18.3 11 13 1017.1 0 34.0 36.1 66.2 174.9 186.9 648.2
02/05 22:30 19.7 93 15.79 18.5 11 15 1017.1 0 34.6 36.6 67.3 177.9 190.6 661.2
02/05 22:20 19.9 93 15.98 18.7 11 13 1017.1 0 35.0 36.8 68.1 179.8 193.0 669.6
02/05 22:10 20.1 93 16.16 18.9 11 11 1017.2 0 35.3 37.1 68.7 181.6 195.3 677.5
02/05 22:00 20.1 92 15.99 18.8 11 13 1017.2 0 35.0 36.8 67.9 179.5 192.7 668.4
02/05 21:50 20.3 92 16.18 19 11 13 1017.2 0 35.4 37.0 68.6 181.4 195.1 676.8
02/05 21:40 20.5 92 16.37 19.2 9 11 1017.3 0 35.8 37.3 69.4 183.3 197.5 685.2
02/05 21:30 20.6 93 16.64 19.4 9 13 1017.4 0 36.3 37.8 70.6 186.4 201.4 698.9
02/05 21:20 20.8 92 16.66 19.5 9 11 1017.4 0 36.4 37.7 70.5 186.2 201.2 698.1
02/05 21:10 21.2 92 17.05 19.8 7 9 1017.4 0 37.2 38.3 71.9 190.1 206.2 715.4
02/05 21:00 21.3 91 16.96 19.8 7 11 1017.4 0 37.0 38.1 71.4 188.7 204.5 709.6
02/05 20:50 21.6 90 17.07 19.9 7 9 1017.4 0 37.2 38.1 71.7 189.4 205.4 712.7
02/05 20:40 21.8 89 17.07 19.9 7 9 1017.2 0 37.1 38.0 71.5 188.9 204.8 710.7
02/05 20:30 21.9 89 17.17 20 6 11 1017.2 0 37.3 38.2 71.8 189.9 206.1 715.1
02/05 20:20 22 88 17.08 19.9 6 7 1017.1 0 37.1 38.0 71.3 188.5 204.4 709.3
02/05 20:10 22 89 17.27 20.1 9 11 1017.1 0 37.5 38.3 72.2 190.8 207.3 719.5
02/05 20:00 21.8 88 16.88 19.7 9 13 1017.1 0 36.7 37.7 70.6 186.5 201.8 700.5
02/05 19:50 21.9 88 16.98 19.8 9 11 1016.9 0 36.9 37.8 70.9 187.4 203.1 704.8
02/05 19:40 21.8 88 16.88 19.7 9 13 1016.9 0 36.7 37.7 70.5 186.4 201.8 700.4
02/05 19:30 22 87 16.88 19.7 7 13 1016.8 0 36.7 37.6 70.4 185.9 201.3 698.5
02/05 19:20 21.9 88 16.98 19.8 9 11 1016.7 0 36.9 37.8 70.9 187.4 203.1 704.7
02/05 19:10 21.9 87 16.79 19.6 9 11 1016.6 0 36.5 37.4 70.0 185.0 200.1 694.5
02/05 19:00 21.9 87 16.79 19.6 9 15 1016.5 0 36.5 37.4 70.0 185.0 200.1 694.5
02/05 18:50 21.9 87 16.79 19.6 9 11 1016.3 0 36.5 37.4 70.0 185.0 200.1 694.4
02/05 18:40 22 86 16.69 19.5 9 11 1016.3 0 36.3 37.2 69.4 183.5 198.3 688.2
02/05 18:30 22 86 16.69 19.5 9 15 1016.1 0 36.3 37.2 69.4 183.5 198.3 688.1
02/05 18:20 22.1 85 16.59 19.5 9 15 1016.1 0 36.1 37.0 68.9 182.0 196.5 681.9
02/05 18:10 22.1 85 16.59 19.5 9 11 1016 0 36.1 37.0 68.9 182.0 196.5 681.8
02/05 18:00 22.2 85 16.69 19.6 11 19 1016 0 36.3 37.1 69.2 183.0 197.7 686.2
02/05 17:50 22.2 86 16.88 19.7 13 17 1015.9 0 36.7 37.5 70.1 185.3 200.6 696.2
02/05 17:40 22.2 86 16.88 19.7 9 11 1015.8 0 36.7 37.4 70.1 185.3 200.6 696.2
02/05 17:30 22.4 85 16.88 19.8 11 19 1015.6 0 36.7 37.3 69.9 184.8 200.0 694.2
02/05 17:20 22.6 85 17.07 19.9 11 13 1015.6 0 37.1 37.6 70.6 186.6 202.4 702.5
02/05 17:10 22.7 84 16.97 19.9 13 17 1015.5 0 36.9 37.4 70.0 185.1 200.6 696.2
02/05 17:00 23 84 17.26 20.1 13 17 1015.5 0 37.4 37.8 71.1 188.0 204.2 708.7
02/05 16:50 23.3 82 17.14 20.1 13 17 1015.4 0 37.2 37.4 70.3 185.7 201.5 699.6
02/05 16:40 23.5 82 17.34 20.2 13 17 1015.4 0 37.6 37.7 71.0 187.7 204.0 708.3
02/05 16:30 23.8 81 17.42 20.3 13 20 1015.3 0 37.7 37.7 71.1 188.0 204.4 709.6
02/05 16:20 24.1 81 17.72 20.6 13 17 1015.2 0 38.3 38.1 72.2 190.9 208.1 722.5
02/05 16:10 23.9 79 17.09 20 15 20 1015.1 0 37.0 37.1 69.5 183.6 199.1 691.3
02/05 16:00 24.1 79 17.28 20.2 13 22 1015.1 0 37.4 37.3 70.2 185.5 201.4 699.4
02/05 15:50 24.3 80 17.7 20.6 15 17 1015 0 38.3 38.0 71.9 190.1 207.2 719.5
02/05 15:40 24.1 79 17.28 20.2 13 20 1015.1 0 37.4 37.3 70.2 185.5 201.4 699.4
02/05 15:30 24.3 80 17.7 20.6 13 22 1015.1 0 38.3 38.0 71.9 190.1 207.2 719.5
02/05 15:20 24.6 80 18.01 20.9 9 13 1015.1 0 38.9 38.4 73.1 193.2 211.1 733.0
02/05 15:10 24.4 80 17.8 20.7 13 17 1015 0 38.5 38.1 72.3 191.1 208.4 723.8
02/05 15:00 24.6 79 17.78 20.7 15 22 1015.1 0 38.4 38.0 72.0 190.4 207.6 720.9
02/05 14:50 24.3 78 17.26 20.2 15 20 1015.1 0 37.3 37.2 69.9 184.7 200.6 696.5
02/05 14:40 24.6 79 17.78 20.7 13 17 1015.3 0 38.4 38.0 72.0 190.4 207.6 721.0
02/05 14:30 24.6 77 17.33 20.3 15 24 1015.4 0 37.4 37.2 70.0 184.9 200.9 697.6
02/05 14:20 24.5 77 17.23 20.2 17 22 1015.4 0 37.2 37.1 69.6 183.9 199.7 693.3
02/05 14:10 24.8 77 17.53 20.5 17 20 1015.4 0 37.8 37.5 70.7 186.9 203.3 706.1
02/05 14:00 25 78 17.96 20.9 17 28 1015.6 0 38.7 38.2 72.5 191.6 209.3 726.8
02/05 13:50 24.9 80 18.31 21.2 11 17 1015.6 0 39.5 38.9 74.2 196.2 214.8 746.2
02/05 13:40 25.1 78 18.06 21 15 24 1015.7 0 38.9 38.3 72.8 192.6 210.5 731.1
02/05 13:30 24.9 78 17.85 20.8 17 26 1015.8 0 38.5 38.0 72.1 190.6 207.9 722.1
02/05 13:20 25.1 77 17.82 20.8 13 20 1016 0 38.4 37.9 71.8 189.7 206.9 718.7
02/05 13:10 25.3 80 18.73 21.6 15 22 1016.2 0 40.3 39.5 75.8 200.5 220.2 764.8
02/05 13:00 25.3 79 18.49 21.4 17 32 1016.3 0 39.8 39.1 74.7 197.5 216.5 752.1
02/05 12:50 24.8 77 17.53 20.5 19 24 1016.4 0 37.8 37.5 70.7 187.0 203.5 706.6
02/05 12:40 25 78 17.96 20.9 15 20 1016.5 0 38.7 38.2 72.5 191.8 209.4 727.2
02/05 12:30 25.2 77 17.93 20.9 17 30 1016.6 0 38.6 38.1 72.2 190.9 208.4 723.8
02/05 12:20 25.2 79 18.39 21.3 13 20 1016.8 0 39.6 39.0 74.4 196.6 215.4 748.1
02/05 12:10 24.5 78 17.46 20.4 22 30 1017.1 0 37.7 37.6 70.7 187.0 203.3 706.1
02/05 12:00 24.8 77 17.53 20.5 19 30 1017.3 0 37.8 37.6 70.8 187.1 203.6 707.0
02/05 11:50 25.2 79 18.39 21.3 15 20 1017.5 0 39.6 39.0 74.4 196.7 215.5 748.4
02/05 11:40 24.9 78 17.85 20.8 19 26 1017.5 0 38.5 38.1 72.2 190.8 208.2 722.9
02/05 11:30 24.5 79 17.68 20.6 19 30 1017.7 0 38.2 38.0 71.8 189.8 206.7 717.9
02/05 11:20 24.5 78 17.46 20.4 20 24 1017.9 0 37.7 37.6 70.8 187.1 203.5 706.5
02/05 11:10 24.5 80 17.9 20.8 20 26 1018 0 38.6 38.4 72.8 192.5 210.1 729.6
02/05 11:00 24.7 81 18.33 21.2 19 32 1018.1 0 39.5 39.1 74.6 197.4 216.1 750.5
02/05 10:50 24.4 80 17.8 20.7 17 26 1018.3 0 38.4 38.3 72.5 191.6 208.9 725.4
02/05 10:40 24.4 80 17.8 20.7 20 28 1018.3 0 38.4 38.3 72.5 191.6 208.9 725.4
02/05 10:30 24.6 82 18.46 21.3 17 26 1018.5 0 39.8 39.4 75.4 199.3 218.4 758.6
02/05 10:20 24.4 81 18.03 20.9 19 22 1018.5 0 38.9 38.7 73.6 194.5 212.4 737.7
02/05 10:10 24.4 81 18.03 20.9 19 24 1018.6 0 38.9 38.7 73.6 194.5 212.4 737.8
02/05 10:00 24.2 82 18.04 20.9 19 30 1018.6 0 39.0 38.8 73.8 195.1 213.2 740.2

Last Refresh: 03-May-2026 02:08:57

Bureau of Meteorology